This is the latest recevied weather packets stored in our database for station/object KI4FRU. If no packets are shown the sender has not sent any weather packets the latest 10 day(s).
| Time | Temp. | Humidity | Pressure | Rain* | Wind** | Luminosity | Snow |
|---|---|---|---|---|---|---|---|
| 1778023572 | 23.89° C | 52% | 1052.3 hPa | 0 mm | - | 11 W/m² | - |
| 1778023269 | 23.89° C | 52% | 1052.1 hPa | 0 mm | - | 11 W/m² | - |
| 1778022966 | 23.89° C | 52% | 1052.3 hPa | 0 mm | - | 28 W/m² | - |
| 1778022665 | 24.44° C | 52% | 1052.1 hPa | 0 mm | - | 26 W/m² | - |
| 1778022363 | 24.44° C | 53% | 1052.1 hPa | 0 mm | - | 29 W/m² | - |
| 1778022058 | 24.44° C | 52% | 1052.2 hPa | 0 mm | - | 34 W/m² | - |
| 1778021755 | 24.44° C | 51% | 1052.1 hPa | 0 mm | - | 47 W/m² | - |
| 1778021451 | 24.44° C | 51% | 1052.3 hPa | 0 mm | - | 50 W/m² | - |
| 1778021148 | 25° C | 51% | 1052.3 hPa | 0 mm | - | 42 W/m² | - |
| 1778020846 | 25° C | 50% | 1052.3 hPa | 0 mm | - | 38 W/m² | - |
| 1778020543 | 25° C | 50% | 1052.3 hPa | 0 mm | - | 81 W/m² | - |
| 1778020239 | 25° C | 51% | 1052.4 hPa | 0 mm | - | 67 W/m² | - |
| 1778019935 | 25° C | 48% | 1052.4 hPa | 0 mm | - | 56 W/m² | - |
| 1778019631 | 25° C | 50% | 1052.2 hPa | 0 mm | - | 87 W/m² | - |
| 1778019329 | 25° C | 49% | 1052.3 hPa | 0 mm | - | 56 W/m² | - |
| 1778019025 | 25.56° C | 49% | 1052 hPa | 0 mm | - | 47 W/m² | - |
| 1778018722 | 25.56° C | 49% | 1052.2 hPa | 0 mm | - | 99 W/m² | - |
| 1778018420 | 26.11° C | 47% | 1052.3 hPa | 0 mm | - | 70 W/m² | - |
| 1778018118 | 25.56° C | 49% | 1052.2 hPa | 0 mm | - | 95 W/m² | - |
| 1778017816 | 26.11° C | 47% | 1052.2 hPa | 0 mm | - | 60 W/m² | - |
| 1778017514 | 26.11° C | 48% | 1052.4 hPa | 0 mm | - | 139 W/m² | - |
| 1778017210 | 26.67° C | 47% | 1052.2 hPa | 0 mm | - | 100 W/m² | - |
| 1778016908 | 26.67° C | 46% | 1052.4 hPa | 0 mm | - | 203 W/m² | - |
| 1778016604 | 27.22° C | 46% | 1052.6 hPa | 0 mm | - | 52 W/m² | - |
| 1778016301 | 26.67° C | 45% | 1052.6 hPa | 0 mm | - | 306 W/m² | - |
* Rain latest hour (hover to see other rain measurements)
** Current wind speed in m/s (hover to see current wind gust speed)